Accueil
METAR-TAF:

METAR-TAF

Aéroports :

Aéroport de Ouarzazate

Ouarzazate, Maroc

latitude: 30-56N, longitude: 006-54W, altitude: 1139 m

Observation

Le bulletin a été fait il y a 59 minutes, à 17:00 UTC
Vent 6 kt de sud/sud-est
Température 34°C
Humidité 8%
Pression 1014 hPa
Visibilité 10 km ou plus
Quelques nuages à une hauteur de 4000 ft

METAR: GMMZ 121700Z 16006KT 9999 FEW040 34/M05 Q1014 NOSIG

Heure: 18:59 (17:59 UTC)

Prévision

Le bulletin a été fait il y a 59 minutes, à 17:00 UTC
Prévision valable du 12 à 18 UTC au 13 à 24 UTC
Vent 9 kt de sud/sud-est
Visibilité 10 km ou plus
Quelques nuages à une hauteur de 4000 ft

TAF: GMMZ 121700Z 1218/1324 16009KT 9999 FEW040

Observations et prévisions météorologiques de plus de 4000 aéroports (messages METAR et TAF).

Les stations disponibles sont représentées par des disques jaunes et rouges sur la carte.

Passer la souris dessus pour voir le nom de la station.

Cliquer dessus pour voir les observations et prévisions météorologiques.

Pour changer de carte: cliquez sur les boutons verts avec une croix noire pour zoomer, sur le bouton vert avec un tiret pour effectuer un zoom arrière, ou sur les flèches vertes pour les cartes adjacentes.


METAR-TAF: